createdAt,value
2022-11-21T00:00:31.482Z,6.90
2022-11-21T00:03:01.781Z,6.90
2022-11-21T00:05:29.309Z,6.90
2022-11-21T00:07:56.762Z,6.90
2022-11-21T00:10:28.942Z,6.90
2022-11-21T00:12:56.882Z,6.80
2022-11-21T00:15:26.786Z,6.80
2022-11-21T00:17:53.714Z,6.80
2022-11-21T00:20:22.480Z,6.80
2022-11-21T00:22:50.321Z,6.80
2022-11-21T00:25:17.506Z,6.80
2022-11-21T00:27:45.747Z,6.80
2022-11-21T00:30:14.911Z,6.80
2022-11-21T00:32:41.881Z,6.70
2022-11-21T00:35:09.110Z,6.70
2022-11-21T00:37:37.858Z,6.70
2022-11-21T00:40:05.700Z,6.70
2022-11-21T00:42:32.648Z,6.70
2022-11-21T00:45:04.010Z,6.70
2022-11-21T00:47:30.817Z,6.70
2022-11-21T00:49:57.629Z,6.70
2022-11-21T00:52:24.720Z,6.70
2022-11-21T00:54:51.597Z,6.70
2022-11-21T00:57:18.472Z,6.70
2022-11-21T00:59:45.655Z,6.70
2022-11-21T01:02:13.973Z,6.70
2022-11-21T01:04:40.955Z,6.70
2022-11-21T01:07:10.066Z,6.70
2022-11-21T01:09:37.041Z,6.70
2022-11-21T01:12:04.241Z,6.90
2022-11-21T01:14:31.335Z,6.90
2022-11-21T01:16:58.241Z,6.90
2022-11-21T01:19:26.438Z,6.90
2022-11-21T01:21:56.118Z,6.90
2022-11-21T01:24:23.107Z,6.80
2022-11-21T01:26:51.163Z,6.80
2022-11-21T01:29:19.009Z,6.80
2022-11-21T01:31:45.965Z,6.80
2022-11-21T01:34:14.910Z,6.80
2022-11-21T01:36:43.523Z,6.80
2022-11-21T01:39:11.975Z,6.80
2022-11-21T01:41:40.812Z,6.80
2022-11-21T01:44:17.025Z,6.80
2022-11-21T01:46:45.071Z,6.80
2022-11-21T01:49:16.160Z,6.70
2022-11-21T01:51:50.471Z,6.70
2022-11-21T01:54:24.162Z,6.70
2022-11-21T01:56:56.418Z,6.80
2022-11-21T01:59:27.828Z,6.80
2022-11-21T02:01:55.943Z,6.80
2022-11-21T02:04:26.182Z,6.80
2022-11-21T02:06:58.091Z,6.80
2022-11-21T02:09:26.173Z,6.80
2022-11-21T02:11:57.758Z,6.80
2022-11-21T02:14:26.011Z,6.90
2022-11-21T02:16:57.249Z,6.90
2022-11-21T02:19:31.144Z,6.90
2022-11-21T02:22:07.361Z,6.90
2022-11-21T02:24:41.723Z,6.90
2022-11-21T02:27:10.353Z,6.90
2022-11-21T02:29:37.627Z,6.90
2022-11-21T02:32:08.269Z,6.90
2022-11-21T02:34:35.161Z,6.90
2022-11-21T02:37:03.950Z,6.90
2022-11-21T02:39:33.262Z,6.90
2022-11-21T02:42:07.097Z,6.80
2022-11-21T02:44:39.962Z,6.80
2022-11-21T02:47:19.903Z,6.80
2022-11-21T02:49:53.846Z,6.80
2022-11-21T02:52:20.817Z,6.70
2022-11-21T02:54:47.679Z,6.70
2022-11-21T02:57:15.049Z,6.70
2022-11-21T02:59:43.272Z,6.70
2022-11-21T03:02:10.204Z,6.70
2022-11-21T03:04:37.502Z,6.70
2022-11-21T03:07:04.543Z,6.70
2022-11-21T03:09:31.433Z,6.70
2022-11-21T03:11:58.851Z,6.60
2022-11-21T03:14:26.077Z,6.60
2022-11-21T03:16:54.615Z,6.60
2022-11-21T03:19:23.518Z,6.60
2022-11-21T03:21:50.388Z,6.60
2022-11-21T03:24:17.304Z,6.60
2022-11-21T03:26:46.217Z,6.70
2022-11-21T03:29:13.291Z,6.70
2022-11-21T03:31:40.300Z,6.70
2022-11-21T03:34:14.824Z,6.70
2022-11-21T03:36:41.673Z,6.80
2022-11-21T03:39:10.450Z,6.80
2022-11-21T03:41:37.310Z,6.80
2022-11-21T03:44:06.544Z,6.80
2022-11-21T03:46:36.160Z,6.80
2022-11-21T03:49:03.333Z,6.80
2022-11-21T03:51:31.866Z,6.90
2022-11-21T03:53:59.018Z,6.90
2022-11-21T03:56:26.309Z,6.90
2022-11-21T03:58:53.420Z,7.00
2022-11-21T04:01:20.914Z,7.00
2022-11-21T04:03:48.171Z,7.00
2022-11-21T04:06:17.089Z,7.10
2022-11-21T04:08:46.633Z,7.10
2022-11-21T04:11:13.762Z,7.10
2022-11-21T04:13:40.803Z,7.10
2022-11-21T04:16:07.965Z,7.10
2022-11-21T04:18:35.061Z,7.10
2022-11-21T04:21:03.835Z,7.10
2022-11-21T04:23:30.954Z,7.10
2022-11-21T04:25:59.410Z,7.10
2022-11-21T04:28:26.489Z,7.20
2022-11-21T04:30:55.106Z,7.20
2022-11-21T04:33:22.654Z,7.10
2022-11-21T04:35:49.621Z,7.10
2022-11-21T04:38:16.676Z,7.10
2022-11-21T04:40:44.426Z,7.10
2022-11-21T04:43:12.750Z,7.10
2022-11-21T04:45:39.741Z,7.10
2022-11-21T04:48:06.747Z,7.10
2022-11-21T04:50:33.629Z,7.10
2022-11-21T04:53:02.321Z,7.10
2022-11-21T04:55:31.675Z,7.20
2022-11-21T04:57:59.082Z,7.20
2022-11-21T05:00:27.552Z,7.20
2022-11-21T05:02:54.484Z,7.20
2022-11-21T05:05:21.412Z,7.20
2022-11-21T05:07:48.457Z,7.30
2022-11-21T05:10:15.400Z,7.20
2022-11-21T05:13:20.655Z,7.20
2022-11-21T05:15:57.172Z,7.20
2022-11-21T05:18:24.787Z,7.20
2022-11-21T05:20:53.711Z,7.10
2022-11-21T05:23:20.630Z,7.10
2022-11-21T05:25:47.517Z,7.10
2022-11-21T05:28:16.454Z,7.10
2022-11-21T05:30:43.289Z,7.10
2022-11-21T05:33:11.508Z,7.00
2022-11-21T05:35:43.199Z,7.00
2022-11-21T05:38:10.906Z,7.00
2022-11-21T05:40:37.938Z,7.00
2022-11-21T05:43:23.581Z,7.00
2022-11-21T05:45:51.001Z,6.90
2022-11-21T05:48:19.293Z,6.90
2022-11-21T05:50:48.454Z,6.90
2022-11-21T05:53:16.280Z,6.80
2022-11-21T05:55:43.657Z,6.80
2022-11-21T05:58:10.919Z,6.80
2022-11-21T06:00:38.310Z,6.80
2022-11-21T06:03:23.864Z,6.80
2022-11-21T06:05:59.481Z,6.90
2022-11-21T06:08:27.966Z,6.90
2022-11-21T06:10:54.987Z,6.90
2022-11-21T06:13:22.097Z,6.90
2022-11-21T06:15:50.717Z,6.80
2022-11-21T06:18:17.788Z,6.80
2022-11-21T06:20:45.535Z,6.80
2022-11-21T06:23:13.832Z,6.80
2022-11-21T06:25:40.883Z,6.80
2022-11-21T06:28:07.878Z,6.70
2022-11-21T06:30:34.736Z,6.70
2022-11-21T06:33:04.813Z,6.70
2022-11-21T06:35:32.055Z,6.70
2022-11-21T06:37:58.982Z,6.70
2022-11-21T06:40:27.779Z,6.70
2022-11-21T06:42:54.694Z,6.60
2022-11-21T06:45:21.652Z,6.60
2022-11-21T06:47:49.037Z,6.60
2022-11-21T06:50:16.524Z,6.60
2022-11-21T06:52:43.407Z,6.60
2022-11-21T06:55:12.035Z,6.50
2022-11-21T06:57:40.422Z,6.50
2022-11-21T07:00:08.475Z,6.50
2022-11-21T07:02:35.434Z,6.50
2022-11-21T07:05:02.352Z,6.50
2022-11-21T07:07:29.311Z,6.50
2022-11-21T07:09:58.013Z,6.50
2022-11-21T07:12:43.347Z,6.50
2022-11-21T07:15:12.229Z,6.60
2022-11-21T07:17:41.310Z,6.60
2022-11-21T07:20:09.554Z,6.60
2022-11-21T07:22:36.465Z,6.70
2022-11-21T07:25:04.427Z,6.80
2022-11-21T07:27:31.361Z,6.70
2022-11-21T07:29:58.591Z,6.70
2022-11-21T07:32:28.553Z,6.70
2022-11-21T07:34:56.101Z,6.70
2022-11-21T07:37:23.228Z,6.70
2022-11-21T07:39:50.353Z,6.70
2022-11-21T07:42:17.632Z,6.80
2022-11-21T07:44:45.422Z,6.90
2022-11-21T07:47:13.601Z,6.80
2022-11-21T07:49:42.066Z,6.90
2022-11-21T07:52:08.967Z,6.90
2022-11-21T07:54:36.536Z,6.90
2022-11-21T07:57:03.698Z,6.90
2022-11-21T07:59:30.868Z,7.00
2022-11-21T08:01:59.757Z,7.00
2022-11-21T08:04:26.927Z,7.10
2022-11-21T08:06:56.101Z,7.20
2022-11-21T08:09:27.617Z,7.30
2022-11-21T08:11:54.867Z,7.40
2022-11-21T08:14:24.602Z,7.50
2022-11-21T08:16:52.893Z,7.70
2022-11-21T08:19:20.526Z,7.70
2022-11-21T08:21:47.692Z,7.70
2022-11-21T08:24:17.961Z,7.70
2022-11-21T08:26:45.316Z,7.70
2022-11-21T08:29:13.380Z,7.60
2022-11-21T08:31:40.758Z,7.60
2022-11-21T08:34:14.073Z,7.60
2022-11-21T08:36:41.479Z,7.60
2022-11-21T08:39:08.431Z,7.50
2022-11-21T08:41:55.553Z,7.60
2022-11-21T08:44:22.632Z,7.60
2022-11-21T08:46:49.542Z,7.60
2022-11-21T08:49:16.566Z,7.70
2022-11-21T08:51:43.420Z,7.80
2022-11-21T08:54:10.581Z,8.40
2022-11-21T08:56:38.989Z,9.30
2022-11-21T08:59:05.897Z,10.30
2022-11-21T09:01:33.418Z,11.00
2022-11-21T09:04:00.662Z,11.40
2022-11-21T09:06:28.694Z,11.40
2022-11-21T09:08:55.865Z,11.10
2022-11-21T09:11:25.018Z,10.70
2022-11-21T09:14:12.771Z,10.30
2022-11-21T09:17:02.061Z,9.90
2022-11-21T09:19:29.769Z,9.60
2022-11-21T09:21:57.190Z,9.20
2022-11-21T09:24:24.198Z,9.00
2022-11-21T09:26:51.915Z,8.80
2022-11-21T09:29:20.676Z,8.70
2022-11-21T09:31:48.300Z,8.50
2022-11-21T09:34:16.052Z,8.50
2022-11-21T09:36:43.041Z,8.50
2022-11-21T09:39:10.023Z,8.50
2022-11-21T09:41:52.319Z,8.70
2022-11-21T09:44:47.244Z,9.10
2022-11-21T09:47:23.046Z,9.90
2022-11-21T09:49:55.284Z,11.10
2022-11-21T09:52:28.290Z,11.90
2022-11-21T09:54:59.473Z,12.60
2022-11-21T09:57:32.067Z,12.80
2022-11-21T10:00:14.400Z,12.80
2022-11-21T10:02:41.373Z,13.00
2022-11-21T10:05:13.436Z,13.50
2022-11-21T10:07:42.535Z,13.80
2022-11-21T10:10:29.174Z,13.60
2022-11-21T10:13:09.314Z,13.20
2022-11-21T10:15:50.603Z,12.60
2022-11-21T10:18:51.138Z,12.00
2022-11-21T10:21:35.451Z,11.50
2022-11-21T10:24:21.591Z,11.20
2022-11-21T10:26:52.123Z,11.20
2022-11-21T10:29:25.831Z,11.40
2022-11-21T10:31:59.213Z,11.70
2022-11-21T10:34:30.887Z,12.10
2022-11-21T10:37:06.525Z,12.80
2022-11-21T10:39:43.554Z,13.30
2022-11-21T10:42:24.278Z,13.80
2022-11-21T10:45:10.770Z,14.30
2022-11-21T10:47:39.296Z,14.60
2022-11-21T10:50:20.627Z,14.40
2022-11-21T10:52:49.912Z,14.00
2022-11-21T10:55:18.188Z,13.40
2022-11-21T10:57:47.235Z,12.90
2022-11-21T11:00:20.145Z,12.40
2022-11-21T11:03:05.037Z,12.00
2022-11-21T11:05:33.724Z,11.60
2022-11-21T11:08:03.580Z,11.40
2022-11-21T11:10:32.591Z,11.20
2022-11-21T11:13:44.587Z,11.00
2022-11-21T11:16:18.194Z,10.90
2022-11-21T11:18:51.750Z,10.70
2022-11-21T11:21:21.640Z,10.60
2022-11-21T11:23:50.172Z,10.50
2022-11-21T11:26:23.064Z,10.40
2022-11-21T11:28:50.456Z,10.40
2022-11-21T11:31:17.856Z,10.20
2022-11-21T11:33:54.796Z,10.10
2022-11-21T11:36:36.105Z,9.90
2022-11-21T11:39:14.100Z,9.90
2022-11-21T11:42:34.868Z,9.70
2022-11-21T11:45:34.296Z,9.60
2022-11-21T11:48:04.734Z,9.50
2022-11-21T11:50:40.446Z,9.40
2022-11-21T11:53:13.475Z,9.30
2022-11-21T11:55:45.130Z,9.30
2022-11-21T11:58:21.417Z,9.30
2022-11-21T12:00:55.156Z,9.40
2022-11-21T12:03:28.589Z,9.40
2022-11-21T12:06:08.658Z,9.40
2022-11-21T12:08:44.520Z,9.30
2022-11-21T12:11:48.570Z,9.30
2022-11-21T12:14:48.591Z,9.40
2022-11-21T12:17:20.261Z,9.40
2022-11-21T12:19:49.938Z,9.40
2022-11-21T12:22:18.731Z,9.30
2022-11-21T12:24:46.305Z,9.40
2022-11-21T12:27:26.197Z,9.40
2022-11-21T12:30:08.216Z,9.40
2022-11-21T12:32:47.828Z,9.40
2022-11-21T12:35:38.421Z,9.30
2022-11-21T12:38:21.304Z,9.30
2022-11-21T12:40:57.087Z,9.30
2022-11-21T12:43:35.716Z,9.30
2022-11-21T12:46:10.501Z,9.30
2022-11-21T12:49:06.259Z,9.30
2022-11-21T12:52:09.647Z,9.30
2022-11-21T12:55:04.297Z,9.40
2022-11-21T12:57:55.667Z,9.50
2022-11-21T13:00:28.838Z,9.50
2022-11-21T13:03:36.036Z,9.60
2022-11-21T13:06:06.893Z,9.80
2022-11-21T13:08:36.631Z,9.80
2022-11-21T13:11:30.367Z,9.70
2022-11-21T13:14:06.551Z,9.70
2022-11-21T13:16:37.046Z,9.80
2022-11-21T13:19:16.765Z,9.80
2022-11-21T13:21:47.819Z,9.80
2022-11-21T13:24:56.275Z,9.80
2022-11-21T13:27:38.409Z,9.80
2022-11-21T13:30:25.191Z,9.80
2022-11-21T13:32:53.107Z,9.80
2022-11-21T13:36:05.837Z,9.80
2022-11-21T13:38:48.501Z,9.80
2022-11-21T13:42:20.139Z,9.90
2022-11-21T13:44:49.818Z,9.90
2022-11-21T13:47:46.298Z,9.90
2022-11-21T13:50:34.435Z,9.90
2022-11-21T13:53:16.056Z,9.90
2022-11-21T13:55:55.088Z,9.90
2022-11-21T13:58:35.570Z,9.90
2022-11-21T14:01:39.951Z,9.80
2022-11-21T14:04:23.701Z,9.80
2022-11-21T14:06:50.713Z,9.80
2022-11-21T14:09:21.967Z,9.70
2022-11-21T14:11:51.341Z,9.70
2022-11-21T14:14:32.901Z,9.80
2022-11-21T14:17:18.223Z,9.80
2022-11-21T14:19:45.436Z,9.80
2022-11-21T14:22:24.260Z,9.90
2022-11-21T14:24:53.121Z,9.90
2022-11-21T14:27:28.372Z,9.90
2022-11-21T14:29:55.512Z,10.00
2022-11-21T14:32:30.296Z,10.00
2022-11-21T14:35:19.125Z,10.00
2022-11-21T14:37:46.301Z,9.90
2022-11-21T14:40:14.250Z,9.90
2022-11-21T14:42:41.221Z,9.80
2022-11-21T14:45:16.967Z,9.80
2022-11-21T14:47:49.229Z,9.70
2022-11-21T14:50:33.435Z,9.80
2022-11-21T14:53:01.678Z,9.80
2022-11-21T14:55:31.634Z,9.80
2022-11-21T14:58:00.760Z,9.80
2022-11-21T15:00:58.178Z,9.90
2022-11-21T15:03:21.100Z,9.90
2022-11-21T15:06:07.294Z,9.80
2022-11-21T15:11:32.818Z,9.70
2022-11-21T15:14:18.266Z,9.50
2022-11-21T15:16:47.440Z,9.40
2022-11-21T15:19:23.515Z,9.30
2022-11-21T15:21:51.449Z,9.30
2022-11-21T15:24:28.093Z,9.20
2022-11-21T15:26:54.986Z,9.20
2022-11-21T15:29:22.813Z,9.20
2022-11-21T15:32:10.510Z,9.10
2022-11-21T15:34:43.177Z,9.10
2022-11-21T15:37:16.292Z,9.10
2022-11-21T15:39:44.432Z,9.10
2022-11-21T15:42:36.293Z,9.10
2022-11-21T15:45:21.059Z,9.00
2022-11-21T15:47:48.562Z,9.00
2022-11-21T15:50:17.726Z,8.90
2022-11-21T15:52:45.429Z,8.90
2022-11-21T15:55:17.021Z,8.80
2022-11-21T15:57:44.072Z,8.80
2022-11-21T16:00:12.155Z,8.80
2022-11-21T16:02:39.132Z,8.70
2022-11-21T16:05:06.495Z,8.70
2022-11-21T16:07:34.932Z,8.70
2022-11-21T16:10:01.833Z,8.60
2022-11-21T16:12:28.807Z,8.50
2022-11-21T16:14:55.638Z,8.50
2022-11-21T16:17:22.560Z,8.50
2022-11-21T16:19:49.612Z,8.50
2022-11-21T16:22:16.805Z,8.50
2022-11-21T16:24:45.070Z,8.50
2022-11-21T16:27:11.927Z,8.50
2022-11-21T16:29:38.978Z,8.40
2022-11-21T16:32:06.298Z,8.20
2022-11-21T16:34:33.259Z,8.40
2022-11-21T16:37:06.944Z,8.40
2022-11-21T16:39:34.899Z,8.40
2022-11-21T16:42:03.457Z,8.30
2022-11-21T16:44:31.240Z,8.30
2022-11-21T16:47:00.208Z,8.30
2022-11-21T16:49:31.051Z,8.20
2022-11-21T16:51:59.218Z,8.20
2022-11-21T16:54:26.083Z,8.20
2022-11-21T16:56:52.948Z,8.20
2022-11-21T16:59:21.174Z,8.20
2022-11-21T17:01:48.109Z,8.20
2022-11-21T17:04:17.469Z,8.20
2022-11-21T17:06:45.370Z,8.10
2022-11-21T17:09:12.291Z,8.10
2022-11-21T17:11:39.196Z,8.10
2022-11-21T17:14:07.149Z,8.10
2022-11-21T17:16:35.787Z,8.10
2022-11-21T17:19:03.615Z,8.10
2022-11-21T17:21:31.685Z,8.10
2022-11-21T17:23:59.190Z,8.10
2022-11-21T17:26:28.460Z,8.10
2022-11-21T17:28:57.145Z,8.10
2022-11-21T17:31:24.874Z,8.10
2022-11-21T17:33:54.628Z,8.10
2022-11-21T17:36:22.700Z,8.10
2022-11-21T17:38:49.897Z,8.10
2022-11-21T17:41:19.355Z,8.10
2022-11-21T17:43:47.417Z,8.00
2022-11-21T17:46:16.856Z,8.00
2022-11-21T17:48:46.447Z,8.00
2022-11-21T17:51:20.112Z,8.00
2022-11-21T17:53:48.707Z,8.00
2022-11-21T17:56:17.437Z,8.10
2022-11-21T17:58:44.696Z,8.00
2022-11-21T18:01:16.068Z,8.00
2022-11-21T18:03:43.066Z,7.90
2022-11-21T18:06:11.704Z,7.90
2022-11-21T18:08:42.232Z,7.90
2022-11-21T18:11:11.539Z,7.90
2022-11-21T18:13:38.985Z,7.90
2022-11-21T18:16:07.809Z,7.90
2022-11-21T18:18:35.930Z,7.90
2022-11-21T18:21:03.771Z,7.90
2022-11-21T18:23:30.757Z,7.90
2022-11-21T18:26:03.620Z,7.90
2022-11-21T18:28:30.968Z,7.90
2022-11-21T18:31:05.658Z,8.00
2022-11-21T18:33:32.623Z,8.00
2022-11-21T18:35:59.549Z,7.90
2022-11-21T18:38:47.397Z,7.90
2022-11-21T18:41:16.840Z,7.90
2022-11-21T18:43:45.062Z,7.90
2022-11-21T18:46:13.331Z,7.80
2022-11-21T18:49:01.289Z,7.80
2022-11-21T18:51:29.746Z,7.90
2022-11-21T18:53:58.666Z,7.90
2022-11-21T18:56:27.150Z,7.90
2022-11-21T18:58:58.603Z,7.80
2022-11-21T19:01:30.561Z,7.80
2022-11-21T19:03:57.494Z,7.80
2022-11-21T19:06:26.009Z,7.70
2022-11-21T19:08:54.461Z,7.70
2022-11-21T19:11:24.217Z,7.60
2022-11-21T19:13:53.266Z,7.60
2022-11-21T19:16:21.822Z,7.60
2022-11-21T19:19:11.732Z,7.70
2022-11-21T19:21:38.002Z,7.70
2022-11-21T19:24:06.796Z,7.70
2022-11-21T19:26:33.798Z,7.80
2022-11-21T19:29:02.146Z,7.80
2022-11-21T19:31:29.318Z,7.80
2022-11-21T19:33:56.252Z,7.90
2022-11-21T19:36:24.038Z,7.90
2022-11-21T19:38:51.800Z,7.90
2022-11-21T19:41:21.015Z,8.00
2022-11-21T19:43:49.532Z,8.00
2022-11-21T19:46:19.605Z,8.00
2022-11-21T19:48:47.777Z,8.00
2022-11-21T19:51:15.004Z,8.00
2022-11-21T19:53:42.123Z,8.00
2022-11-21T19:56:10.888Z,8.10
2022-11-21T19:58:37.746Z,8.10
2022-11-21T20:01:09.337Z,8.10
2022-11-21T20:03:38.616Z,8.00
2022-11-21T20:06:07.146Z,8.00
2022-11-21T20:08:34.081Z,8.00
2022-11-21T20:11:10.416Z,8.10
2022-11-21T20:13:38.936Z,8.10
2022-11-21T20:16:06.320Z,8.10
2022-11-21T20:18:33.259Z,8.10
2022-11-21T20:21:09.029Z,8.10
2022-11-21T20:23:36.440Z,8.10
2022-11-21T20:26:03.981Z,8.20
2022-11-21T20:28:31.528Z,8.20
2022-11-21T20:31:04.579Z,8.20
2022-11-21T20:33:35.224Z,8.20
2022-11-21T20:36:08.291Z,8.20
2022-11-21T20:38:35.966Z,8.30
2022-11-21T20:41:03.663Z,8.20
2022-11-21T20:44:02.774Z,8.20
2022-11-21T20:46:20.862Z,8.30
2022-11-21T20:48:48.500Z,8.30
2022-11-21T20:54:04.717Z,8.30
2022-11-21T20:56:33.000Z,8.30
2022-11-21T20:59:00.145Z,8.30
2022-11-21T21:01:27.806Z,8.30
2022-11-21T21:03:55.158Z,8.30
2022-11-21T21:06:24.355Z,8.30
2022-11-21T21:08:51.936Z,8.30
2022-11-21T21:11:45.108Z,8.30
2022-11-21T21:14:07.355Z,8.30
2022-11-21T21:16:34.611Z,8.30
2022-11-21T21:19:01.670Z,8.20
2022-11-21T21:21:33.272Z,8.20
2022-11-21T21:24:01.747Z,8.30
2022-11-21T21:26:30.678Z,8.30
2022-11-21T21:28:58.130Z,8.20
2022-11-21T21:31:25.202Z,8.20
2022-11-21T21:33:52.225Z,8.20
2022-11-21T21:36:21.283Z,8.10
2022-11-21T21:38:52.779Z,8.10
2022-11-21T21:41:21.185Z,8.00
2022-11-21T21:43:49.831Z,8.00
2022-11-21T21:46:18.391Z,8.00
2022-11-21T21:48:46.251Z,8.00
2022-11-21T21:51:15.626Z,7.90
2022-11-21T21:53:43.781Z,7.90
2022-11-21T21:56:14.505Z,7.90
2022-11-21T21:58:42.590Z,7.90
2022-11-21T22:01:11.924Z,7.80
2022-11-21T22:03:39.842Z,7.90
2022-11-21T22:06:08.743Z,7.80
2022-11-21T22:08:36.950Z,7.90
2022-11-21T22:11:06.468Z,7.90
2022-11-21T22:13:35.878Z,7.90
2022-11-21T22:16:04.804Z,7.90
2022-11-21T22:18:32.362Z,7.90
2022-11-21T22:20:59.252Z,7.90
2022-11-21T22:23:26.687Z,7.80
2022-11-21T22:25:55.646Z,7.70
2022-11-21T22:28:22.644Z,7.60
2022-11-21T22:30:55.884Z,7.60
2022-11-21T22:33:23.030Z,7.50
2022-11-21T22:35:50.056Z,7.40
2022-11-21T22:38:17.512Z,7.50
2022-11-21T22:40:44.779Z,7.40
2022-11-21T22:43:11.830Z,7.30
2022-11-21T22:45:38.767Z,7.30
2022-11-21T22:48:07.257Z,7.20
2022-11-21T22:50:34.216Z,7.20
2022-11-21T22:53:01.187Z,7.20
2022-11-21T22:55:28.033Z,7.10
2022-11-21T22:57:54.901Z,7.20
2022-11-21T23:00:22.029Z,7.20
2022-11-21T23:02:49.107Z,7.30
2022-11-21T23:05:17.287Z,7.30
2022-11-21T23:07:45.006Z,7.30
2022-11-21T23:10:12.525Z,7.10
2022-11-21T23:12:39.441Z,7.30
2022-11-21T23:15:07.242Z,7.30
2022-11-21T23:17:34.116Z,7.30
2022-11-21T23:20:01.005Z,7.30
2022-11-21T23:22:29.209Z,7.30
2022-11-21T23:24:56.047Z,7.30
2022-11-21T23:27:22.845Z,7.30
2022-11-21T23:29:49.672Z,7.30
2022-11-21T23:32:17.023Z,7.40
2022-11-21T23:34:43.920Z,7.40
2022-11-21T23:37:10.811Z,7.40
2022-11-21T23:39:39.078Z,7.50
2022-11-21T23:42:06.041Z,7.50
2022-11-21T23:44:32.917Z,7.60
2022-11-21T23:46:59.747Z,7.60
2022-11-21T23:49:27.028Z,7.60
2022-11-21T23:51:54.112Z,7.60
2022-11-21T23:54:20.993Z,7.60
2022-11-21T23:56:49.340Z,7.70
2022-11-21T23:59:16.219Z,7.60
